sensor_id;sensor_type;location;lat;lon;timestamp;P1;durP1;ratioP1;P2;durP2;ratioP2
42944;SDS011;28584;42.636;23.294;2023-07-30T00:00:01;2.70;;;2.50;;
42944;SDS011;28584;42.636;23.294;2023-07-30T00:02:27;3.38;;;2.35;;
42944;SDS011;28584;42.636;23.294;2023-07-30T00:04:52;2.83;;;2.58;;
42944;SDS011;28584;42.636;23.294;2023-07-30T00:07:18;5.25;;;2.28;;
42944;SDS011;28584;42.636;23.294;2023-07-30T00:09:43;3.22;;;2.45;;
42944;SDS011;28584;42.636;23.294;2023-07-30T00:12:09;2.95;;;2.65;;
42944;SDS011;28584;42.636;23.294;2023-07-30T00:14:35;3.67;;;2.67;;
42944;SDS011;28584;42.636;23.294;2023-07-30T00:17:00;3.55;;;2.80;;
42944;SDS011;28584;42.636;23.294;2023-07-30T00:19:26;2.95;;;2.75;;
42944;SDS011;28584;42.636;23.294;2023-07-30T00:21:51;3.08;;;2.78;;
42944;SDS011;28584;42.636;23.294;2023-07-30T00:24:17;3.25;;;2.88;;
42944;SDS011;28584;42.636;23.294;2023-07-30T00:26:42;3.35;;;2.88;;
42944;SDS011;28584;42.636;23.294;2023-07-30T00:29:07;3.35;;;2.72;;
42944;SDS011;28584;42.636;23.294;2023-07-30T00:31:33;3.40;;;2.50;;
42944;SDS011;28584;42.636;23.294;2023-07-30T00:33:58;4.50;;;3.05;;
42944;SDS011;28584;42.636;23.294;2023-07-30T00:36:24;3.05;;;2.83;;
42944;SDS011;28584;42.636;23.294;2023-07-30T00:38:49;3.20;;;2.90;;
42944;SDS011;28584;42.636;23.294;2023-07-30T00:41:15;3.10;;;2.70;;
42944;SDS011;28584;42.636;23.294;2023-07-30T00:43:40;2.88;;;2.58;;
42944;SDS011;28584;42.636;23.294;2023-07-30T00:46:05;3.00;;;2.80;;
42944;SDS011;28584;42.636;23.294;2023-07-30T00:48:31;3.55;;;3.13;;
42944;SDS011;28584;42.636;23.294;2023-07-30T00:50:57;3.65;;;2.83;;
42944;SDS011;28584;42.636;23.294;2023-07-30T00:53:23;4.32;;;3.20;;
42944;SDS011;28584;42.636;23.294;2023-07-30T00:55:51;3.13;;;2.92;;
42944;SDS011;28584;42.636;23.294;2023-07-30T00:58:17;3.22;;;2.72;;
42944;SDS011;28584;42.636;23.294;2023-07-30T01:00:43;3.55;;;3.25;;
42944;SDS011;28584;42.636;23.294;2023-07-30T01:03:10;3.15;;;2.88;;
42944;SDS011;28584;42.636;23.294;2023-07-30T01:05:35;3.30;;;3.00;;
42944;SDS011;28584;42.636;23.294;2023-07-30T01:08:01;3.13;;;2.83;;
42944;SDS011;28584;42.636;23.294;2023-07-30T01:10:26;2.97;;;2.45;;
42944;SDS011;28584;42.636;23.294;2023-07-30T01:12:55;4.28;;;2.92;;
42944;SDS011;28584;42.636;23.294;2023-07-30T01:15:21;3.70;;;2.30;;
42944;SDS011;28584;42.636;23.294;2023-07-30T01:17:47;4.78;;;2.78;;
42944;SDS011;28584;42.636;23.294;2023-07-30T01:20:12;2.85;;;2.60;;
42944;SDS011;28584;42.636;23.294;2023-07-30T01:22:37;2.42;;;2.22;;
42944;SDS011;28584;42.636;23.294;2023-07-30T01:25:03;3.15;;;2.80;;
42944;SDS011;28584;42.636;23.294;2023-07-30T01:27:29;3.17;;;2.88;;
42944;SDS011;28584;42.636;23.294;2023-07-30T01:30:04;3.35;;;2.92;;
42944;SDS011;28584;42.636;23.294;2023-07-30T01:32:37;4.05;;;3.30;;
42944;SDS011;28584;42.636;23.294;2023-07-30T01:35:02;5.03;;;3.03;;
42944;SDS011;28584;42.636;23.294;2023-07-30T01:37:32;3.63;;;3.10;;
42944;SDS011;28584;42.636;23.294;2023-07-30T01:39:58;3.78;;;2.85;;
42944;SDS011;28584;42.636;23.294;2023-07-30T01:42:29;5.03;;;3.22;;
42944;SDS011;28584;42.636;23.294;2023-07-30T01:44:55;3.72;;;3.20;;
42944;SDS011;28584;42.636;23.294;2023-07-30T01:47:20;3.78;;;3.30;;
42944;SDS011;28584;42.636;23.294;2023-07-30T01:49:46;5.20;;;3.88;;
42944;SDS011;28584;42.636;23.294;2023-07-30T01:52:11;4.97;;;4.03;;
42944;SDS011;28584;42.636;23.294;2023-07-30T01:54:36;4.13;;;3.50;;
42944;SDS011;28584;42.636;23.294;2023-07-30T01:57:02;3.75;;;3.45;;
42944;SDS011;28584;42.636;23.294;2023-07-30T01:59:28;4.20;;;3.65;;
42944;SDS011;28584;42.636;23.294;2023-07-30T02:01:53;4.00;;;3.50;;
42944;SDS011;28584;42.636;23.294;2023-07-30T02:04:18;3.55;;;3.25;;
42944;SDS011;28584;42.636;23.294;2023-07-30T02:06:44;4.55;;;3.90;;
42944;SDS011;28584;42.636;23.294;2023-07-30T02:09:09;4.18;;;3.70;;
42944;SDS011;28584;42.636;23.294;2023-07-30T02:11:35;4.80;;;4.40;;
42944;SDS011;28584;42.636;23.294;2023-07-30T02:14:00;4.57;;;3.72;;
42944;SDS011;28584;42.636;23.294;2023-07-30T02:16:25;4.90;;;3.20;;
42944;SDS011;28584;42.636;23.294;2023-07-30T02:18:51;3.42;;;2.50;;
42944;SDS011;28584;42.636;23.294;2023-07-30T02:21:16;3.33;;;2.88;;
42944;SDS011;28584;42.636;23.294;2023-07-30T02:23:42;3.03;;;2.78;;
42944;SDS011;28584;42.636;23.294;2023-07-30T02:26:07;3.60;;;3.20;;
42944;SDS011;28584;42.636;23.294;2023-07-30T02:28:32;3.25;;;2.95;;
42944;SDS011;28584;42.636;23.294;2023-07-30T02:30:58;3.72;;;3.15;;
42944;SDS011;28584;42.636;23.294;2023-07-30T02:33:23;4.15;;;3.15;;
42944;SDS011;28584;42.636;23.294;2023-07-30T02:35:48;3.25;;;2.92;;
42944;SDS011;28584;42.636;23.294;2023-07-30T02:38:14;3.42;;;3.13;;
42944;SDS011;28584;42.636;23.294;2023-07-30T02:40:39;3.38;;;2.92;;
42944;SDS011;28584;42.636;23.294;2023-07-30T02:43:05;3.50;;;3.20;;
42944;SDS011;28584;42.636;23.294;2023-07-30T02:45:30;3.50;;;3.20;;
42944;SDS011;28584;42.636;23.294;2023-07-30T02:47:56;3.65;;;3.35;;
42944;SDS011;28584;42.636;23.294;2023-07-30T02:50:21;4.03;;;3.63;;
42944;SDS011;28584;42.636;23.294;2023-07-30T02:52:46;2.92;;;2.72;;
42944;SDS011;28584;42.636;23.294;2023-07-30T02:55:12;5.20;;;3.55;;
42944;SDS011;28584;42.636;23.294;2023-07-30T02:57:37;3.40;;;3.10;;
42944;SDS011;28584;42.636;23.294;2023-07-30T03:00:03;3.30;;;2.80;;
42944;SDS011;28584;42.636;23.294;2023-07-30T03:02:29;4.88;;;2.97;;
42944;SDS011;28584;42.636;23.294;2023-07-30T03:04:54;3.20;;;2.78;;
42944;SDS011;28584;42.636;23.294;2023-07-30T03:07:20;3.80;;;3.08;;
42944;SDS011;28584;42.636;23.294;2023-07-30T03:09:46;3.38;;;3.00;;
42944;SDS011;28584;42.636;23.294;2023-07-30T03:12:11;4.75;;;2.88;;
42944;SDS011;28584;42.636;23.294;2023-07-30T03:14:36;3.00;;;2.80;;
42944;SDS011;28584;42.636;23.294;2023-07-30T03:17:02;3.30;;;3.00;;
42944;SDS011;28584;42.636;23.294;2023-07-30T03:19:29;5.15;;;3.05;;
42944;SDS011;28584;42.636;23.294;2023-07-30T03:21:55;3.60;;;3.30;;
42944;SDS011;28584;42.636;23.294;2023-07-30T03:24:20;3.08;;;2.55;;
42944;SDS011;28584;42.636;23.294;2023-07-30T03:26:46;3.80;;;3.00;;
42944;SDS011;28584;42.636;23.294;2023-07-30T03:29:11;7.15;;;3.22;;
42944;SDS011;28584;42.636;23.294;2023-07-30T03:31:37;3.63;;;3.33;;
42944;SDS011;28584;42.636;23.294;2023-07-30T03:34:02;3.40;;;3.03;;
42944;SDS011;28584;42.636;23.294;2023-07-30T03:36:27;3.28;;;2.97;;
42944;SDS011;28584;42.636;23.294;2023-07-30T03:38:53;3.78;;;3.17;;
42944;SDS011;28584;42.636;23.294;2023-07-30T03:41:18;3.70;;;2.92;;
42944;SDS011;28584;42.636;23.294;2023-07-30T03:43:43;3.42;;;2.80;;
42944;SDS011;28584;42.636;23.294;2023-07-30T03:46:09;3.10;;;2.80;;
42944;SDS011;28584;42.636;23.294;2023-07-30T03:48:34;3.83;;;2.75;;
42944;SDS011;28584;42.636;23.294;2023-07-30T03:51:00;3.72;;;2.53;;
42944;SDS011;28584;42.636;23.294;2023-07-30T03:53:25;3.03;;;2.72;;
42944;SDS011;28584;42.636;23.294;2023-07-30T03:55:51;2.88;;;2.67;;
42944;SDS011;28584;42.636;23.294;2023-07-30T03:58:16;3.45;;;2.85;;
42944;SDS011;28584;42.636;23.294;2023-07-30T04:00:42;3.35;;;3.05;;
42944;SDS011;28584;42.636;23.294;2023-07-30T04:03:07;4.13;;;2.90;;
42944;SDS011;28584;42.636;23.294;2023-07-30T04:05:32;4.00;;;2.83;;
42944;SDS011;28584;42.636;23.294;2023-07-30T04:07:58;3.17;;;2.67;;
42944;SDS011;28584;42.636;23.294;2023-07-30T04:10:24;4.07;;;2.60;;
42944;SDS011;28584;42.636;23.294;2023-07-30T04:12:49;3.17;;;2.88;;
42944;SDS011;28584;42.636;23.294;2023-07-30T04:15:15;3.38;;;2.83;;
42944;SDS011;28584;42.636;23.294;2023-07-30T04:17:41;3.10;;;2.80;;
42944;SDS011;28584;42.636;23.294;2023-07-30T04:20:07;3.08;;;2.65;;
42944;SDS011;28584;42.636;23.294;2023-07-30T04:22:34;3.25;;;2.85;;
42944;SDS011;28584;42.636;23.294;2023-07-30T04:25:00;4.80;;;2.75;;
42944;SDS011;28584;42.636;23.294;2023-07-30T04:27:25;4.05;;;3.10;;
42944;SDS011;28584;42.636;23.294;2023-07-30T04:29:51;5.22;;;2.88;;
42944;SDS011;28584;42.636;23.294;2023-07-30T04:32:16;2.70;;;2.50;;
42944;SDS011;28584;42.636;23.294;2023-07-30T04:34:42;3.60;;;2.63;;
42944;SDS011;28584;42.636;23.294;2023-07-30T04:37:07;4.13;;;3.00;;
42944;SDS011;28584;42.636;23.294;2023-07-30T04:39:33;4.38;;;3.03;;
42944;SDS011;28584;42.636;23.294;2023-07-30T04:41:58;3.17;;;2.92;;
42944;SDS011;28584;42.636;23.294;2023-07-30T04:44:24;3.53;;;3.22;;
42944;SDS011;28584;42.636;23.294;2023-07-30T04:46:49;4.53;;;3.20;;
42944;SDS011;28584;42.636;23.294;2023-07-30T04:49:15;5.10;;;3.60;;
42944;SDS011;28584;42.636;23.294;2023-07-30T04:51:40;4.18;;;3.30;;
42944;SDS011;28584;42.636;23.294;2023-07-30T04:54:06;6.65;;;3.85;;
42944;SDS011;28584;42.636;23.294;2023-07-30T04:56:31;6.50;;;3.80;;
42944;SDS011;28584;42.636;23.294;2023-07-30T04:58:57;7.85;;;3.80;;
42944;SDS011;28584;42.636;23.294;2023-07-30T05:01:23;6.28;;;3.90;;
42944;SDS011;28584;42.636;23.294;2023-07-30T05:03:49;5.00;;;3.58;;
42944;SDS011;28584;42.636;23.294;2023-07-30T05:06:14;6.05;;;3.42;;
42944;SDS011;28584;42.636;23.294;2023-07-30T05:08:40;4.68;;;2.92;;
42944;SDS011;28584;42.636;23.294;2023-07-30T05:11:05;4.18;;;3.58;;
42944;SDS011;28584;42.636;23.294;2023-07-30T05:13:31;4.75;;;4.20;;
42944;SDS011;28584;42.636;23.294;2023-07-30T05:15:56;4.35;;;3.65;;
42944;SDS011;28584;42.636;23.294;2023-07-30T05:18:22;6.93;;;4.10;;
42944;SDS011;28584;42.636;23.294;2023-07-30T05:20:47;4.22;;;3.75;;
42944;SDS011;28584;42.636;23.294;2023-07-30T05:23:12;5.07;;;4.18;;
42944;SDS011;28584;42.636;23.294;2023-07-30T05:25:38;6.47;;;4.82;;
42944;SDS011;28584;42.636;23.294;2023-07-30T05:28:03;5.47;;;4.80;;
42944;SDS011;28584;42.636;23.294;2023-07-30T05:30:29;5.78;;;4.30;;
42944;SDS011;28584;42.636;23.294;2023-07-30T05:32:54;5.28;;;4.60;;
42944;SDS011;28584;42.636;23.294;2023-07-30T05:35:20;4.78;;;4.28;;
42944;SDS011;28584;42.636;23.294;2023-07-30T05:37:45;6.05;;;4.40;;
42944;SDS011;28584;42.636;23.294;2023-07-30T05:40:10;6.78;;;4.68;;
42944;SDS011;28584;42.636;23.294;2023-07-30T05:42:36;8.93;;;4.05;;
42944;SDS011;28584;42.636;23.294;2023-07-30T05:45:01;6.55;;;3.95;;
42944;SDS011;28584;42.636;23.294;2023-07-30T05:47:27;5.25;;;4.13;;
42944;SDS011;28584;42.636;23.294;2023-07-30T05:49:52;5.50;;;4.05;;
42944;SDS011;28584;42.636;23.294;2023-07-30T05:52:18;6.95;;;4.45;;
42944;SDS011;28584;42.636;23.294;2023-07-30T05:54:43;7.85;;;5.00;;
42944;SDS011;28584;42.636;23.294;2023-07-30T05:57:09;7.60;;;4.68;;
42944;SDS011;28584;42.636;23.294;2023-07-30T05:59:34;5.85;;;4.32;;
42944;SDS011;28584;42.636;23.294;2023-07-30T06:12:06;5.72;;;3.97;;
42944;SDS011;28584;42.636;23.294;2023-07-30T06:14:32;6.45;;;4.18;;
42944;SDS011;28584;42.636;23.294;2023-07-30T06:16:57;7.93;;;4.40;;
42944;SDS011;28584;42.636;23.294;2023-07-30T06:19:23;6.55;;;4.68;;
42944;SDS011;28584;42.636;23.294;2023-07-30T06:21:48;5.72;;;4.32;;
42944;SDS011;28584;42.636;23.294;2023-07-30T06:24:14;4.78;;;4.07;;
42944;SDS011;28584;42.636;23.294;2023-07-30T06:26:39;5.13;;;4.47;;
42944;SDS011;28584;42.636;23.294;2023-07-30T06:29:05;7.47;;;4.22;;
42944;SDS011;28584;42.636;23.294;2023-07-30T06:31:30;4.50;;;4.10;;
42944;SDS011;28584;42.636;23.294;2023-07-30T06:33:56;4.57;;;4.00;;
42944;SDS011;28584;42.636;23.294;2023-07-30T06:36:21;6.85;;;4.07;;
42944;SDS011;28584;42.636;23.294;2023-07-30T06:38:46;7.95;;;4.22;;
42944;SDS011;28584;42.636;23.294;2023-07-30T06:41:12;7.53;;;4.70;;
42944;SDS011;28584;42.636;23.294;2023-07-30T06:43:39;7.15;;;4.40;;
42944;SDS011;28584;42.636;23.294;2023-07-30T06:46:04;5.65;;;3.97;;
42944;SDS011;28584;42.636;23.294;2023-07-30T06:48:30;4.60;;;3.80;;
42944;SDS011;28584;42.636;23.294;2023-07-30T06:50:56;5.78;;;4.03;;
42944;SDS011;28584;42.636;23.294;2023-07-30T06:53:21;5.22;;;3.58;;
42944;SDS011;28584;42.636;23.294;2023-07-30T06:55:47;5.93;;;4.32;;
42944;SDS011;28584;42.636;23.294;2023-07-30T06:58:12;6.45;;;4.00;;
42944;SDS011;28584;42.636;23.294;2023-07-30T07:00:39;4.35;;;3.25;;
42944;SDS011;28584;42.636;23.294;2023-07-30T07:03:04;7.00;;;3.80;;
42944;SDS011;28584;42.636;23.294;2023-07-30T07:05:29;6.78;;;4.47;;
42944;SDS011;28584;42.636;23.294;2023-07-30T07:07:55;4.50;;;4.10;;
42944;SDS011;28584;42.636;23.294;2023-07-30T07:10:21;5.78;;;4.20;;
42944;SDS011;28584;42.636;23.294;2023-07-30T07:12:46;4.90;;;3.72;;
42944;SDS011;28584;42.636;23.294;2023-07-30T07:15:12;7.10;;;3.63;;
42944;SDS011;28584;42.636;23.294;2023-07-30T07:17:38;8.38;;;4.10;;
42944;SDS011;28584;42.636;23.294;2023-07-30T07:20:04;5.32;;;4.00;;
42944;SDS011;28584;42.636;23.294;2023-07-30T07:22:31;9.45;;;4.38;;
42944;SDS011;28584;42.636;23.294;2023-07-30T07:24:57;7.72;;;3.90;;
42944;SDS011;28584;42.636;23.294;2023-07-30T07:27:22;4.43;;;3.83;;
42944;SDS011;28584;42.636;23.294;2023-07-30T07:29:51;6.28;;;4.10;;
42944;SDS011;28584;42.636;23.294;2023-07-30T07:32:17;7.30;;;4.00;;
42944;SDS011;28584;42.636;23.294;2023-07-30T07:34:46;7.85;;;4.13;;
42944;SDS011;28584;42.636;23.294;2023-07-30T07:37:15;6.50;;;3.78;;
42944;SDS011;28584;42.636;23.294;2023-07-30T07:39:43;15.65;;;4.70;;
42944;SDS011;28584;42.636;23.294;2023-07-30T07:42:09;11.65;;;4.95;;
42944;SDS011;28584;42.636;23.294;2023-07-30T07:44:35;10.60;;;4.43;;
42944;SDS011;28584;42.636;23.294;2023-07-30T07:47:01;11.23;;;4.25;;
42944;SDS011;28584;42.636;23.294;2023-07-30T07:49:27;14.65;;;4.55;;
42944;SDS011;28584;42.636;23.294;2023-07-30T07:51:52;12.65;;;4.75;;
42944;SDS011;28584;42.636;23.294;2023-07-30T07:54:17;5.78;;;3.95;;
42944;SDS011;28584;42.636;23.294;2023-07-30T07:56:43;4.65;;;4.03;;
42944;SDS011;28584;42.636;23.294;2023-07-30T07:59:08;8.95;;;3.90;;
42944;SDS011;28584;42.636;23.294;2023-07-30T08:01:34;10.50;;;3.85;;
42944;SDS011;28584;42.636;23.294;2023-07-30T08:03:59;5.43;;;2.97;;
42944;SDS011;28584;42.636;23.294;2023-07-30T08:06:24;7.85;;;3.75;;
42944;SDS011;28584;42.636;23.294;2023-07-30T08:08:50;12.10;;;3.85;;
42944;SDS011;28584;42.636;23.294;2023-07-30T08:11:15;4.97;;;3.40;;
42944;SDS011;28584;42.636;23.294;2023-07-30T08:13:41;7.70;;;3.95;;
42944;SDS011;28584;42.636;23.294;2023-07-30T08:16:06;11.57;;;4.90;;
42944;SDS011;28584;42.636;23.294;2023-07-30T08:18:32;12.48;;;3.90;;
42944;SDS011;28584;42.636;23.294;2023-07-30T08:20:57;5.80;;;3.70;;
42944;SDS011;28584;42.636;23.294;2023-07-30T08:23:23;3.80;;;2.95;;
42944;SDS011;28584;42.636;23.294;2023-07-30T08:25:48;7.00;;;3.63;;
42944;SDS011;28584;42.636;23.294;2023-07-30T08:28:15;4.60;;;3.33;;
42944;SDS011;28584;42.636;23.294;2023-07-30T08:30:40;5.38;;;3.35;;
42944;SDS011;28584;42.636;23.294;2023-07-30T08:33:06;5.15;;;3.22;;
42944;SDS011;28584;42.636;23.294;2023-07-30T08:35:31;3.70;;;3.40;;
42944;SDS011;28584;42.636;23.294;2023-07-30T08:37:56;6.38;;;3.03;;
42944;SDS011;28584;42.636;23.294;2023-07-30T08:40:22;4.15;;;3.08;;
42944;SDS011;28584;42.636;23.294;2023-07-30T08:42:50;3.95;;;3.00;;
42944;SDS011;28584;42.636;23.294;2023-07-30T08:45:16;5.15;;;3.03;;
42944;SDS011;28584;42.636;23.294;2023-07-30T08:47:42;3.90;;;2.95;;
42944;SDS011;28584;42.636;23.294;2023-07-30T08:50:08;6.05;;;3.28;;
42944;SDS011;28584;42.636;23.294;2023-07-30T08:52:34;5.85;;;3.17;;
42944;SDS011;28584;42.636;23.294;2023-07-30T08:55:01;4.68;;;3.17;;
42944;SDS011;28584;42.636;23.294;2023-07-30T08:57:32;5.57;;;3.78;;
42944;SDS011;28584;42.636;23.294;2023-07-30T09:00:02;3.53;;;3.22;;
42944;SDS011;28584;42.636;23.294;2023-07-30T09:02:33;2.72;;;2.47;;
42944;SDS011;28584;42.636;23.294;2023-07-30T09:05:02;4.28;;;2.60;;
42944;SDS011;28584;42.636;23.294;2023-07-30T09:07:29;4.55;;;3.28;;
42944;SDS011;28584;42.636;23.294;2023-07-30T09:09:54;7.05;;;3.00;;
42944;SDS011;28584;42.636;23.294;2023-07-30T09:12:20;5.40;;;3.35;;
42944;SDS011;28584;42.636;23.294;2023-07-30T09:14:51;3.22;;;2.92;;
42944;SDS011;28584;42.636;23.294;2023-07-30T09:17:17;6.20;;;3.17;;
42944;SDS011;28584;42.636;23.294;2023-07-30T09:19:43;4.15;;;2.90;;
42944;SDS011;28584;42.636;23.294;2023-07-30T09:22:09;4.07;;;3.75;;
42944;SDS011;28584;42.636;23.294;2023-07-30T09:24:35;3.45;;;3.15;;
42944;SDS011;28584;42.636;23.294;2023-07-30T09:27:01;3.50;;;3.20;;
42944;SDS011;28584;42.636;23.294;2023-07-30T09:29:28;4.40;;;3.63;;
42944;SDS011;28584;42.636;23.294;2023-07-30T09:31:54;4.10;;;3.70;;
42944;SDS011;28584;42.636;23.294;2023-07-30T09:34:20;3.80;;;3.50;;
42944;SDS011;28584;42.636;23.294;2023-07-30T09:36:47;3.78;;;3.35;;
42944;SDS011;28584;42.636;23.294;2023-07-30T09:39:22;3.78;;;3.45;;
42944;SDS011;28584;42.636;23.294;2023-07-30T09:41:52;3.60;;;3.30;;
42944;SDS011;28584;42.636;23.294;2023-07-30T09:44:24;4.28;;;3.17;;
42944;SDS011;28584;42.636;23.294;2023-07-30T09:46:49;4.35;;;3.50;;
42944;SDS011;28584;42.636;23.294;2023-07-30T09:49:15;3.15;;;2.90;;
42944;SDS011;28584;42.636;23.294;2023-07-30T09:51:41;5.57;;;3.85;;
42944;SDS011;28584;42.636;23.294;2023-07-30T09:54:11;6.18;;;3.90;;
42944;SDS011;28584;42.636;23.294;2023-07-30T09:56:37;4.60;;;3.60;;
42944;SDS011;28584;42.636;23.294;2023-07-30T09:59:04;6.75;;;3.67;;
42944;SDS011;28584;42.636;23.294;2023-07-30T10:01:30;5.07;;;3.88;;
42944;SDS011;28584;42.636;23.294;2023-07-30T10:03:57;5.97;;;3.88;;
42944;SDS011;28584;42.636;23.294;2023-07-30T10:06:27;5.03;;;3.83;;
42944;SDS011;28584;42.636;23.294;2023-07-30T10:08:55;4.60;;;3.42;;
42944;SDS011;28584;42.636;23.294;2023-07-30T10:11:24;5.38;;;4.20;;
42944;SDS011;28584;42.636;23.294;2023-07-30T10:13:50;4.57;;;3.45;;
42944;SDS011;28584;42.636;23.294;2023-07-30T10:16:17;4.13;;;3.72;;
42944;SDS011;28584;42.636;23.294;2023-07-30T10:18:43;4.20;;;3.60;;
42944;SDS011;28584;42.636;23.294;2023-07-30T10:21:09;3.60;;;3.20;;
42944;SDS011;28584;42.636;23.294;2023-07-30T10:23:36;3.88;;;3.58;;
42944;SDS011;28584;42.636;23.294;2023-07-30T10:26:11;4.18;;;3.28;;
42944;SDS011;28584;42.636;23.294;2023-07-30T10:28:37;6.55;;;3.45;;
42944;SDS011;28584;42.636;23.294;2023-07-30T10:31:08;4.68;;;3.45;;
42944;SDS011;28584;42.636;23.294;2023-07-30T10:33:44;4.35;;;3.35;;
42944;SDS011;28584;42.636;23.294;2023-07-30T10:36:10;5.18;;;3.60;;
42944;SDS011;28584;42.636;23.294;2023-07-30T10:38:36;3.88;;;3.58;;
42944;SDS011;28584;42.636;23.294;2023-07-30T10:41:02;5.60;;;3.67;;
42944;SDS011;28584;42.636;23.294;2023-07-30T10:43:36;4.85;;;3.70;;
42944;SDS011;28584;42.636;23.294;2023-07-30T10:46:04;4.65;;;3.90;;
42944;SDS011;28584;42.636;23.294;2023-07-30T10:48:30;3.72;;;3.40;;
42944;SDS011;28584;42.636;23.294;2023-07-30T10:50:57;6.05;;;4.00;;
42944;SDS011;28584;42.636;23.294;2023-07-30T10:53:24;4.70;;;3.80;;
42944;SDS011;28584;42.636;23.294;2023-07-30T10:55:49;4.78;;;3.72;;
42944;SDS011;28584;42.636;23.294;2023-07-30T10:58:15;6.38;;;3.45;;
42944;SDS011;28584;42.636;23.294;2023-07-30T11:00:41;4.95;;;3.65;;
42944;SDS011;28584;42.636;23.294;2023-07-30T11:03:07;4.68;;;4.20;;
42944;SDS011;28584;42.636;23.294;2023-07-30T11:05:32;7.47;;;4.13;;
42944;SDS011;28584;42.636;23.294;2023-07-30T11:07:57;5.00;;;4.00;;
42944;SDS011;28584;42.636;23.294;2023-07-30T11:10:23;4.22;;;3.83;;
42944;SDS011;28584;42.636;23.294;2023-07-30T11:12:49;6.13;;;3.72;;
42944;SDS011;28584;42.636;23.294;2023-07-30T11:15:15;4.40;;;3.78;;
42944;SDS011;28584;42.636;23.294;2023-07-30T11:17:40;4.80;;;4.20;;
42944;SDS011;28584;42.636;23.294;2023-07-30T11:20:06;5.93;;;4.00;;
42944;SDS011;28584;42.636;23.294;2023-07-30T11:22:34;4.40;;;3.75;;
42944;SDS011;28584;42.636;23.294;2023-07-30T11:25:00;4.20;;;3.80;;
42944;SDS011;28584;42.636;23.294;2023-07-30T11:27:41;5.03;;;4.00;;
42944;SDS011;28584;42.636;23.294;2023-07-30T11:30:18;5.15;;;3.90;;
42944;SDS011;28584;42.636;23.294;2023-07-30T11:32:44;6.80;;;4.18;;
42944;SDS011;28584;42.636;23.294;2023-07-30T11:35:13;7.28;;;4.53;;
42944;SDS011;28584;42.636;23.294;2023-07-30T11:37:41;6.60;;;4.13;;
42944;SDS011;28584;42.636;23.294;2023-07-30T11:40:08;5.47;;;4.32;;
42944;SDS011;28584;42.636;23.294;2023-07-30T11:42:35;4.47;;;4.05;;
42944;SDS011;28584;42.636;23.294;2023-07-30T11:48:09;7.88;;;3.90;;
42944;SDS011;28584;42.636;23.294;2023-07-30T11:50:44;3.95;;;3.63;;
42944;SDS011;28584;42.636;23.294;2023-07-30T11:53:14;5.35;;;3.80;;
42944;SDS011;28584;42.636;23.294;2023-07-30T11:55:40;5.05;;;3.90;;
42944;SDS011;28584;42.636;23.294;2023-07-30T11:58:07;5.95;;;4.07;;
42944;SDS011;28584;42.636;23.294;2023-07-30T12:00:34;4.07;;;3.33;;
42944;SDS011;28584;42.636;23.294;2023-07-30T12:03:02;5.78;;;4.32;;
42944;SDS011;28584;42.636;23.294;2023-07-30T12:05:31;6.30;;;4.28;;
42944;SDS011;28584;42.636;23.294;2023-07-30T12:07:59;6.22;;;4.32;;
42944;SDS011;28584;42.636;23.294;2023-07-30T12:10:27;11.52;;;5.00;;
42944;SDS011;28584;42.636;23.294;2023-07-30T12:12:53;4.93;;;4.40;;
42944;SDS011;28584;42.636;23.294;2023-07-30T12:15:19;4.20;;;3.75;;
42944;SDS011;28584;42.636;23.294;2023-07-30T12:17:44;5.10;;;4.28;;
42944;SDS011;28584;42.636;23.294;2023-07-30T12:20:11;4.68;;;4.28;;
42944;SDS011;28584;42.636;23.294;2023-07-30T12:22:36;6.75;;;4.20;;
42944;SDS011;28584;42.636;23.294;2023-07-30T12:25:03;8.68;;;4.40;;
42944;SDS011;28584;42.636;23.294;2023-07-30T12:27:29;4.97;;;4.47;;
42944;SDS011;28584;42.636;23.294;2023-07-30T12:29:55;4.43;;;3.72;;
42944;SDS011;28584;42.636;23.294;2023-07-30T12:32:21;6.00;;;4.40;;
42944;SDS011;28584;42.636;23.294;2023-07-30T12:34:46;6.20;;;4.70;;
42944;SDS011;28584;42.636;23.294;2023-07-30T12:37:11;5.75;;;4.00;;
42944;SDS011;28584;42.636;23.294;2023-07-30T12:39:37;4.78;;;4.38;;
42944;SDS011;28584;42.636;23.294;2023-07-30T12:42:02;4.45;;;4.05;;
42944;SDS011;28584;42.636;23.294;2023-07-30T12:44:28;5.45;;;4.55;;
42944;SDS011;28584;42.636;23.294;2023-07-30T12:46:53;6.30;;;4.28;;
42944;SDS011;28584;42.636;23.294;2023-07-30T12:49:19;5.03;;;3.92;;
42944;SDS011;28584;42.636;23.294;2023-07-30T12:51:44;5.97;;;4.53;;
42944;SDS011;28584;42.636;23.294;2023-07-30T12:54:10;6.30;;;4.90;;
42944;SDS011;28584;42.636;23.294;2023-07-30T12:56:35;10.15;;;6.60;;
42944;SDS011;28584;42.636;23.294;2023-07-30T12:59:01;4.75;;;4.28;;
42944;SDS011;28584;42.636;23.294;2023-07-30T13:01:26;4.82;;;4.32;;
42944;SDS011;28584;42.636;23.294;2023-07-30T13:03:51;5.35;;;4.70;;
42944;SDS011;28584;42.636;23.294;2023-07-30T13:06:20;5.15;;;4.72;;
42944;SDS011;28584;42.636;23.294;2023-07-30T13:08:45;6.20;;;4.80;;
42944;SDS011;28584;42.636;23.294;2023-07-30T13:11:11;5.45;;;4.35;;
42944;SDS011;28584;42.636;23.294;2023-07-30T13:13:36;5.40;;;4.90;;
42944;SDS011;28584;42.636;23.294;2023-07-30T13:16:02;5.38;;;4.53;;
42944;SDS011;28584;42.636;23.294;2023-07-30T13:18:28;5.65;;;5.05;;
42944;SDS011;28584;42.636;23.294;2023-07-30T13:20:54;6.43;;;4.78;;
42944;SDS011;28584;42.636;23.294;2023-07-30T13:23:19;14.50;;;9.43;;
42944;SDS011;28584;42.636;23.294;2023-07-30T13:25:45;4.60;;;4.20;;
42944;SDS011;28584;42.636;23.294;2023-07-30T13:28:10;7.18;;;4.75;;
42944;SDS011;28584;42.636;23.294;2023-07-30T13:30:36;6.32;;;4.68;;
42944;SDS011;28584;42.636;23.294;2023-07-30T13:33:01;5.40;;;4.60;;
42944;SDS011;28584;42.636;23.294;2023-07-30T13:35:27;6.63;;;4.93;;
42944;SDS011;28584;42.636;23.294;2023-07-30T13:37:52;5.60;;;4.72;;
42944;SDS011;28584;42.636;23.294;2023-07-30T13:40:17;5.25;;;4.78;;
42944;SDS011;28584;42.636;23.294;2023-07-30T13:42:43;7.10;;;4.82;;
42944;SDS011;28584;42.636;23.294;2023-07-30T13:45:08;5.63;;;4.50;;
42944;SDS011;28584;42.636;23.294;2023-07-30T13:47:34;5.60;;;5.00;;
42944;SDS011;28584;42.636;23.294;2023-07-30T13:50:00;6.65;;;4.82;;
42944;SDS011;28584;42.636;23.294;2023-07-30T13:52:25;5.57;;;4.97;;
42944;SDS011;28584;42.636;23.294;2023-07-30T13:54:51;7.05;;;4.60;;
42944;SDS011;28584;42.636;23.294;2023-07-30T13:57:22;6.60;;;4.50;;
42944;SDS011;28584;42.636;23.294;2023-07-30T13:59:52;5.50;;;4.47;;
42944;SDS011;28584;42.636;23.294;2023-07-30T14:02:18;7.13;;;4.65;;
42944;SDS011;28584;42.636;23.294;2023-07-30T14:04:43;7.20;;;5.13;;
42944;SDS011;28584;42.636;23.294;2023-07-30T14:07:09;5.45;;;4.63;;
42944;SDS011;28584;42.636;23.294;2023-07-30T14:09:34;5.50;;;5.00;;
42944;SDS011;28584;42.636;23.294;2023-07-30T14:12:02;5.82;;;4.45;;
42944;SDS011;28584;42.636;23.294;2023-07-30T14:14:28;5.07;;;4.45;;
42944;SDS011;28584;42.636;23.294;2023-07-30T14:16:53;5.22;;;4.53;;
42944;SDS011;28584;42.636;23.294;2023-07-30T14:19:19;6.68;;;4.38;;
42944;SDS011;28584;42.636;23.294;2023-07-30T14:21:45;5.18;;;4.70;;
42944;SDS011;28584;42.636;23.294;2023-07-30T14:24:11;5.80;;;4.88;;
42944;SDS011;28584;42.636;23.294;2023-07-30T14:26:36;7.68;;;4.85;;
42944;SDS011;28584;42.636;23.294;2023-07-30T14:29:02;7.65;;;5.43;;
42944;SDS011;28584;42.636;23.294;2023-07-30T14:31:27;7.25;;;4.93;;
42944;SDS011;28584;42.636;23.294;2023-07-30T14:33:53;8.90;;;4.40;;
42944;SDS011;28584;42.636;23.294;2023-07-30T14:36:18;5.30;;;4.80;;
42944;SDS011;28584;42.636;23.294;2023-07-30T14:38:43;6.90;;;5.00;;